sensor_id;sensor_type;location;lat;lon;timestamp;pressure;altitude;pressure_sealevel;temperature;humidity
56514;BME280;62152;52.078;8.414;2022-08-07T00:00:28;101217.25;;;22.86;45.15
56514;BME280;62152;52.078;8.414;2022-08-07T00:02:13;101220.03;;;22.86;45.01
56514;BME280;62152;52.078;8.414;2022-08-07T00:03:58;101219.22;;;22.86;45.07
56514;BME280;62152;52.078;8.414;2022-08-07T00:05:44;101213.69;;;22.86;44.91
56514;BME280;62152;52.078;8.414;2022-08-07T00:07:29;101213.69;;;22.86;45.20
56514;BME280;62152;52.078;8.414;2022-08-07T00:09:14;101213.69;;;22.86;44.87
56514;BME280;62152;52.078;8.414;2022-08-07T00:11:02;101210.09;;;22.85;45.00
56514;BME280;62152;52.078;8.414;2022-08-07T00:12:48;101209.66;;;22.83;45.13
56514;BME280;62152;52.078;8.414;2022-08-07T00:14:33;101212.03;;;22.85;45.06
56514;BME280;62152;52.078;8.414;2022-08-07T00:16:18;101202.63;;;22.86;45.00
56514;BME280;62152;52.078;8.414;2022-08-07T00:18:03;101200.97;;;22.85;45.24
56514;BME280;62152;52.078;8.414;2022-08-07T00:19:50;101208.47;;;22.84;45.33
56514;BME280;62152;52.078;8.414;2022-08-07T00:21:34;101210.44;;;22.84;45.22
56514;BME280;62152;52.078;8.414;2022-08-07T00:23:19;101204.56;;;22.85;45.07
56514;BME280;62152;52.078;8.414;2022-08-07T00:25:06;101202.94;;;22.84;45.29
56514;BME280;62152;52.078;8.414;2022-08-07T00:26:55;101198.22;;;22.85;45.45
56514;BME280;62152;52.078;8.414;2022-08-07T00:28:40;101204.91;;;22.84;45.28
56514;BME280;62152;52.078;8.414;2022-08-07T00:30:26;101197.78;;;22.83;45.20
56514;BME280;62152;52.078;8.414;2022-08-07T00:32:12;101199.38;;;22.84;45.24
56514;BME280;62152;52.078;8.414;2022-08-07T00:33:57;101195.03;;;22.83;45.35
56514;BME280;62152;52.078;8.414;2022-08-07T00:35:42;101199.38;;;22.84;45.22
56514;BME280;62152;52.078;8.414;2022-08-07T00:37:27;101198.59;;;22.83;45.23
56514;BME280;62152;52.078;8.414;2022-08-07T00:39:12;101193.84;;;22.84;45.48
56514;BME280;62152;52.078;8.414;2022-08-07T00:40:58;101191.47;;;22.82;45.21
56514;BME280;62152;52.078;8.414;2022-08-07T00:42:46;101197.00;;;22.82;45.44
56514;BME280;62152;52.078;8.414;2022-08-07T00:44:31;101194.25;;;22.82;45.39
56514;BME280;62152;52.078;8.414;2022-08-07T00:46:16;101193.06;;;22.83;45.25
56514;BME280;62152;52.078;8.414;2022-08-07T00:48:02;101192.25;;;22.83;45.43
56514;BME280;62152;52.078;8.414;2022-08-07T00:49:47;101192.25;;;22.83;45.56
56514;BME280;62152;52.078;8.414;2022-08-07T00:51:32;101185.13;;;22.82;45.47
56514;BME280;62152;52.078;8.414;2022-08-07T00:53:18;101189.88;;;22.81;45.53
56514;BME280;62152;52.078;8.414;2022-08-07T00:55:04;101190.66;;;22.82;45.65
56514;BME280;62152;52.078;8.414;2022-08-07T00:56:50;101187.53;;;22.83;45.66
56514;BME280;62152;52.078;8.414;2022-08-07T00:58:40;101188.69;;;22.82;45.35
56514;BME280;62152;52.078;8.414;2022-08-07T01:00:26;101186.31;;;22.81;45.67
56514;BME280;62152;52.078;8.414;2022-08-07T01:02:10;101197.00;;;22.82;45.58
56514;BME280;62152;52.078;8.414;2022-08-07T01:03:56;101187.13;;;22.81;45.55
56514;BME280;62152;52.078;8.414;2022-08-07T01:05:43;101196.22;;;22.82;45.69
56514;BME280;62152;52.078;8.414;2022-08-07T01:07:30;101190.66;;;22.82;45.52
56514;BME280;62152;52.078;8.414;2022-08-07T01:09:16;101195.03;;;22.83;45.47
56514;BME280;62152;52.078;8.414;2022-08-07T01:11:03;101191.84;;;22.81;45.37
56514;BME280;62152;52.078;8.414;2022-08-07T01:12:49;101183.56;;;22.81;45.59
56514;BME280;62152;52.078;8.414;2022-08-07T01:14:38;101185.13;;;22.82;45.87
56514;BME280;62152;52.078;8.414;2022-08-07T01:16:24;101182.38;;;22.82;45.53
56514;BME280;62152;52.078;8.414;2022-08-07T01:18:10;101189.88;;;22.81;45.86
56514;BME280;62152;52.078;8.414;2022-08-07T01:20:03;101185.13;;;22.82;45.75
56514;BME280;62152;52.078;8.414;2022-08-07T01:21:53;101179.59;;;22.82;46.00
56514;BME280;62152;52.078;8.414;2022-08-07T01:23:44;101182.75;;;22.80;45.94
56514;BME280;62152;52.078;8.414;2022-08-07T01:25:31;101186.31;;;22.81;45.82
56514;BME280;62152;52.078;8.414;2022-08-07T01:27:17;101178.03;;;22.81;45.68
56514;BME280;62152;52.078;8.414;2022-08-07T01:29:03;101170.53;;;22.81;45.91
56514;BME280;62152;52.078;8.414;2022-08-07T01:30:49;101174.06;;;22.82;45.83
56514;BME280;62152;52.078;8.414;2022-08-07T01:32:36;101178.81;;;22.81;45.68
56514;BME280;62152;52.078;8.414;2022-08-07T01:34:21;101172.50;;;22.81;45.93
56514;BME280;62152;52.078;8.414;2022-08-07T01:36:08;101173.28;;;22.81;45.93
56514;BME280;62152;52.078;8.414;2022-08-07T01:37:59;101174.47;;;22.80;46.05
56514;BME280;62152;52.078;8.414;2022-08-07T01:39:45;101171.69;;;22.80;45.79
56514;BME280;62152;52.078;8.414;2022-08-07T01:41:44;101170.91;;;22.80;45.77
56514;BME280;62152;52.078;8.414;2022-08-07T01:43:30;101167.34;;;22.79;46.02
56514;BME280;62152;52.078;8.414;2022-08-07T01:45:17;101171.69;;;22.80;46.08
56514;BME280;62152;52.078;8.414;2022-08-07T01:47:07;101173.66;;;22.80;46.00
56514;BME280;62152;52.078;8.414;2022-08-07T01:48:54;101164.56;;;22.79;45.95
56514;BME280;62152;52.078;8.414;2022-08-07T01:50:42;101165.38;;;22.80;46.16
56514;BME280;62152;52.078;8.414;2022-08-07T01:52:33;101164.56;;;22.79;46.00
56514;BME280;62152;52.078;8.414;2022-08-07T01:54:26;101158.25;;;22.79;46.04
56514;BME280;62152;52.078;8.414;2022-08-07T01:56:24;101160.63;;;22.80;46.15
56514;BME280;62152;52.078;8.414;2022-08-07T01:58:12;101158.25;;;22.79;46.04
56514;BME280;62152;52.078;8.414;2022-08-07T02:00:05;101162.94;;;22.78;46.25
56514;BME280;62152;52.078;8.414;2022-08-07T02:02:04;101161.81;;;22.79;45.82
56514;BME280;62152;52.078;8.414;2022-08-07T02:03:57;101153.50;;;22.79;46.17
56514;BME280;62152;52.078;8.414;2022-08-07T02:05:52;101147.19;;;22.79;46.14
56514;BME280;62152;52.078;8.414;2022-08-07T02:07:46;101145.56;;;22.78;46.25
56514;BME280;62152;52.078;8.414;2022-08-07T02:09:51;101149.13;;;22.78;46.04
56514;BME280;62152;52.078;8.414;2022-08-07T02:11:44;101156.63;;;22.78;45.96
56514;BME280;62152;52.078;8.414;2022-08-07T02:13:33;101152.72;;;22.79;45.98
56514;BME280;62152;52.078;8.414;2022-08-07T02:15:24;101158.25;;;22.79;46.27
56514;BME280;62152;52.078;8.414;2022-08-07T02:17:13;101153.84;;;22.78;46.24
56514;BME280;62152;52.078;8.414;2022-08-07T02:19:01;101140.03;;;22.78;46.04
56514;BME280;62152;52.078;8.414;2022-08-07T02:20:52;101147.53;;;22.77;46.30
56514;BME280;62152;52.078;8.414;2022-08-07T02:22:41;101142.78;;;22.78;46.13
56514;BME280;62152;52.078;8.414;2022-08-07T02:24:29;101148.31;;;22.78;46.13
56514;BME280;62152;52.078;8.414;2022-08-07T02:26:19;101149.50;;;22.77;46.40
56514;BME280;62152;52.078;8.414;2022-08-07T02:28:08;101153.84;;;22.78;46.50
56514;BME280;62152;52.078;8.414;2022-08-07T02:29:56;101149.50;;;22.77;46.33
56514;BME280;62152;52.078;8.414;2022-08-07T02:31:50;101149.50;;;22.77;46.18
56514;BME280;62152;52.078;8.414;2022-08-07T02:33:38;101145.56;;;22.78;46.25
56514;BME280;62152;52.078;8.414;2022-08-07T02:35:24;101145.56;;;22.78;46.36
56514;BME280;62152;52.078;8.414;2022-08-07T02:37:14;101144.78;;;22.77;46.47
56514;BME280;62152;52.078;8.414;2022-08-07T02:39:04;101142.00;;;22.77;46.58
56514;BME280;62152;52.078;8.414;2022-08-07T02:40:53;101141.22;;;22.77;46.62
56514;BME280;62152;52.078;8.414;2022-08-07T02:42:43;101142.00;;;22.77;46.46
56514;BME280;62152;52.078;8.414;2022-08-07T02:44:30;101144.78;;;22.77;46.48
56514;BME280;62152;52.078;8.414;2022-08-07T02:46:21;101138.44;;;22.77;46.47
56514;BME280;62152;52.078;8.414;2022-08-07T02:48:11;101140.41;;;22.76;46.39
56514;BME280;62152;52.078;8.414;2022-08-07T02:49:59;101142.38;;;22.76;46.45
56514;BME280;62152;52.078;8.414;2022-08-07T02:51:49;101134.88;;;22.76;46.78
56514;BME280;62152;52.078;8.414;2022-08-07T02:53:37;101137.66;;;22.76;46.27
56514;BME280;62152;52.078;8.414;2022-08-07T02:55:30;101136.84;;;22.76;46.44
56514;BME280;62152;52.078;8.414;2022-08-07T02:57:19;101137.66;;;22.76;46.68
56514;BME280;62152;52.078;8.414;2022-08-07T02:59:16;101138.44;;;22.77;46.96
56514;BME280;62152;52.078;8.414;2022-08-07T03:01:02;101138.44;;;22.77;46.61
56514;BME280;62152;52.078;8.414;2022-08-07T03:02:51;101129.34;;;22.76;46.80
56514;BME280;62152;52.078;8.414;2022-08-07T03:04:40;101133.28;;;22.75;46.54
56514;BME280;62152;52.078;8.414;2022-08-07T03:06:29;101136.84;;;22.76;46.55
56514;BME280;62152;52.078;8.414;2022-08-07T03:08:16;101134.09;;;22.76;46.66
56514;BME280;62152;52.078;8.414;2022-08-07T03:10:07;101132.50;;;22.75;46.82
56514;BME280;62152;52.078;8.414;2022-08-07T03:11:53;101141.59;;;22.75;46.79
56514;BME280;62152;52.078;8.414;2022-08-07T03:13:39;101133.28;;;22.75;46.69
56514;BME280;62152;52.078;8.414;2022-08-07T03:15:28;101139.63;;;22.76;46.54
56514;BME280;62152;52.078;8.414;2022-08-07T03:17:15;101141.59;;;22.75;46.72
56514;BME280;62152;52.078;8.414;2022-08-07T03:19:01;101142.38;;;22.76;46.64
56514;BME280;62152;52.078;8.414;2022-08-07T03:20:49;101141.59;;;22.75;46.93
56514;BME280;62152;52.078;8.414;2022-08-07T03:22:37;101142.38;;;22.76;46.90
56514;BME280;62152;52.078;8.414;2022-08-07T03:24:26;101137.25;;;22.74;46.66
56514;BME280;62152;52.078;8.414;2022-08-07T03:26:18;101136.06;;;22.75;46.62
56514;BME280;62152;52.078;8.414;2022-08-07T03:28:09;101132.50;;;22.75;46.60
56514;BME280;62152;52.078;8.414;2022-08-07T03:29:58;101136.84;;;22.76;46.81
56514;BME280;62152;52.078;8.414;2022-08-07T03:31:48;101140.78;;;22.75;46.67
56514;BME280;62152;52.078;8.414;2022-08-07T03:33:37;101144.34;;;22.75;46.79
56514;BME280;62152;52.078;8.414;2022-08-07T03:35:27;101146.31;;;22.75;46.57
56514;BME280;62152;52.078;8.414;2022-08-07T03:37:16;101140.00;;;22.74;46.62
56514;BME280;62152;52.078;8.414;2022-08-07T03:39:06;101145.53;;;22.74;46.66
56514;BME280;62152;52.078;8.414;2022-08-07T03:40:56;101143.16;;;22.73;46.96
56514;BME280;62152;52.078;8.414;2022-08-07T03:42:43;101147.50;;;22.74;47.00
56514;BME280;62152;52.078;8.414;2022-08-07T03:44:30;101140.78;;;22.75;46.85
56514;BME280;62152;52.078;8.414;2022-08-07T03:46:18;101136.44;;;22.74;46.82
56514;BME280;62152;52.078;8.414;2022-08-07T03:48:08;101140.00;;;22.74;46.87
56514;BME280;62152;52.078;8.414;2022-08-07T03:49:56;101133.69;;;22.74;46.86
56514;BME280;62152;52.078;8.414;2022-08-07T03:51:49;101138.41;;;22.73;46.95
56514;BME280;62152;52.078;8.414;2022-08-07T03:53:37;101139.22;;;22.74;46.92
56514;BME280;62152;52.078;8.414;2022-08-07T03:55:23;101143.94;;;22.73;46.88
56514;BME280;62152;52.078;8.414;2022-08-07T03:57:10;101141.97;;;22.74;46.71
56514;BME280;62152;52.078;8.414;2022-08-07T03:58:57;101141.19;;;22.73;47.02
56514;BME280;62152;52.078;8.414;2022-08-07T04:00:44;101143.16;;;22.73;46.69
56514;BME280;62152;52.078;8.414;2022-08-07T04:02:32;101137.63;;;22.73;46.96
56514;BME280;62152;52.078;8.414;2022-08-07T04:04:21;101143.94;;;22.73;47.08
56514;BME280;62152;52.078;8.414;2022-08-07T04:06:11;101140.38;;;22.73;47.12
56514;BME280;62152;52.078;8.414;2022-08-07T04:07:56;101145.91;;;22.73;47.11
56514;BME280;62152;52.078;8.414;2022-08-07T04:09:43;101149.84;;;22.72;46.93
56514;BME280;62152;52.078;8.414;2022-08-07T04:11:30;101151.44;;;22.73;46.90
56514;BME280;62152;52.078;8.414;2022-08-07T04:13:16;101146.72;;;22.73;46.81
56514;BME280;62152;52.078;8.414;2022-08-07T04:15:05;101144.75;;;22.74;46.85
56514;BME280;62152;52.078;8.414;2022-08-07T04:16:53;101149.47;;;22.73;46.99
56514;BME280;62152;52.078;8.414;2022-08-07T04:18:39;101152.63;;;22.72;46.95
56514;BME280;62152;52.078;8.414;2022-08-07T04:20:27;101148.25;;;22.71;46.92
56514;BME280;62152;52.078;8.414;2022-08-07T04:22:15;101151.44;;;22.73;47.17
56514;BME280;62152;52.078;8.414;2022-08-07T04:24:06;101156.97;;;22.73;47.00
56514;BME280;62152;52.078;8.414;2022-08-07T04:25:53;101151.44;;;22.73;47.08
56514;BME280;62152;52.078;8.414;2022-08-07T04:27:40;101163.69;;;22.72;47.11
56514;BME280;62152;52.078;8.414;2022-08-07T04:29:27;101159.75;;;22.73;47.28
56514;BME280;62152;52.078;8.414;2022-08-07T04:31:13;101157.31;;;22.71;47.31
56514;BME280;62152;52.078;8.414;2022-08-07T04:33:00;101161.34;;;22.74;46.99
56514;BME280;62152;52.078;8.414;2022-08-07T04:34:53;101156.97;;;22.73;47.10
56514;BME280;62152;52.078;8.414;2022-08-07T04:36:42;101153.41;;;22.72;46.96
56514;BME280;62152;52.078;8.414;2022-08-07T04:38:28;101155.38;;;22.72;47.05
56514;BME280;62152;52.078;8.414;2022-08-07T04:40:13;101157.78;;;22.73;47.03
56514;BME280;62152;52.078;8.414;2022-08-07T04:42:01;101151.00;;;22.71;46.97
56514;BME280;62152;52.078;8.414;2022-08-07T04:43:48;101152.63;;;22.72;47.03
56514;BME280;62152;52.078;8.414;2022-08-07T04:45:41;101159.75;;;22.73;47.32
56514;BME280;62152;52.078;8.414;2022-08-07T04:47:40;101156.97;;;22.73;47.01
56514;BME280;62152;52.078;8.414;2022-08-07T04:49:41;101159.75;;;22.73;47.50
56514;BME280;62152;52.078;8.414;2022-08-07T04:51:39;101158.94;;;22.72;47.44
56514;BME280;62152;52.078;8.414;2022-08-07T04:53:41;101157.78;;;22.73;47.23
56514;BME280;62152;52.078;8.414;2022-08-07T04:55:42;101166.88;;;22.74;47.28
56514;BME280;62152;52.078;8.414;2022-08-07T04:57:46;101158.16;;;22.72;47.15
56514;BME280;62152;52.078;8.414;2022-08-07T04:59:52;101155.00;;;22.73;47.21
56514;BME280;62152;52.078;8.414;2022-08-07T05:01:48;101166.06;;;22.73;47.03
56514;BME280;62152;52.078;8.414;2022-08-07T05:03:47;101160.53;;;22.73;47.15
56514;BME280;62152;52.078;8.414;2022-08-07T05:05:44;101158.16;;;22.72;47.23
56514;BME280;62152;52.078;8.414;2022-08-07T05:07:43;101156.78;;;22.58;46.47
56514;BME280;62152;52.078;8.414;2022-08-07T05:09:46;101162.16;;;22.48;46.70
56514;BME280;62152;52.078;8.414;2022-08-07T05:11:44;101156.69;;;22.51;46.86
56514;BME280;62152;52.078;8.414;2022-08-07T05:13:36;101160.28;;;22.55;46.89
56514;BME280;62152;52.078;8.414;2022-08-07T05:15:33;101154.75;;;22.55;46.64
56514;BME280;62152;52.078;8.414;2022-08-07T05:17:24;101160.28;;;22.55;46.62
56514;BME280;62152;52.078;8.414;2022-08-07T05:19:16;101153.16;;;22.54;46.86
56514;BME280;62152;52.078;8.414;2022-08-07T05:21:08;101153.16;;;22.54;46.87
56514;BME280;62152;52.078;8.414;2022-08-07T05:23:08;101157.91;;;22.54;46.52
56514;BME280;62152;52.078;8.414;2022-08-07T05:24:59;101167.38;;;22.53;46.66
56514;BME280;62152;52.078;8.414;2022-08-07T05:26:48;101165.41;;;22.53;46.42
56514;BME280;62152;52.078;8.414;2022-08-07T05:28:38;101172.09;;;22.52;46.31
56514;BME280;62152;52.078;8.414;2022-08-07T05:30:28;101172.09;;;22.52;46.34
56514;BME280;62152;52.078;8.414;2022-08-07T05:32:18;101163.34;;;22.50;46.28
56514;BME280;62152;52.078;8.414;2022-08-07T05:34:11;101166.56;;;22.52;46.16
56514;BME280;62152;52.078;8.414;2022-08-07T05:36:00;101170.13;;;22.53;46.30
56514;BME280;62152;52.078;8.414;2022-08-07T05:37:48;101162.22;;;22.51;46.35
56514;BME280;62152;52.078;8.414;2022-08-07T05:39:38;101169.34;;;22.52;46.00
56514;BME280;62152;52.078;8.414;2022-08-07T05:41:26;101168.88;;;22.50;46.12
56514;BME280;62152;52.078;8.414;2022-08-07T05:43:14;101168.88;;;22.50;46.09
56514;BME280;62152;52.078;8.414;2022-08-07T05:45:01;101171.66;;;22.50;46.25
56514;BME280;62152;52.078;8.414;2022-08-07T05:46:50;101166.50;;;22.49;46.03
56514;BME280;62152;52.078;8.414;2022-08-07T05:48:40;101175.22;;;22.51;46.22
56514;BME280;62152;52.078;8.414;2022-08-07T05:50:27;101168.88;;;22.50;46.41
56514;BME280;62152;52.078;8.414;2022-08-07T05:52:16;101171.66;;;22.50;46.07
56514;BME280;62152;52.078;8.414;2022-08-07T05:54:03;101183.09;;;22.49;45.59
56514;BME280;62152;52.078;8.414;2022-08-07T05:55:53;101187.81;;;22.48;45.94
56514;BME280;62152;52.078;8.414;2022-08-07T05:57:44;101177.94;;;22.47;45.95
56514;BME280;62152;52.078;8.414;2022-08-07T05:59:36;101183.47;;;22.47;45.77
56514;BME280;62152;52.078;8.414;2022-08-07T06:01:26;101185.84;;;22.49;45.56
56514;BME280;62152;52.078;8.414;2022-08-07T06:03:17;101185.72;;;22.38;44.67
56514;BME280;62152;52.078;8.414;2022-08-07T06:05:06;101186.59;;;22.19;43.91
56514;BME280;62152;52.078;8.414;2022-08-07T06:06:57;101176.78;;;22.02;44.02
56514;BME280;62152;52.078;8.414;2022-08-07T06:08:48;101181.78;;;21.93;43.56
56514;BME280;62152;52.078;8.414;2022-08-07T06:10:35;101181.25;;;21.84;43.31
56514;BME280;62152;52.078;8.414;2022-08-07T06:12:27;101184.41;;;21.86;43.97
56514;BME280;62152;52.078;8.414;2022-08-07T06:14:13;101183.06;;;21.99;43.83
56514;BME280;62152;52.078;8.414;2022-08-07T06:16:02;101191.19;;;22.11;43.53
56514;BME280;62152;52.078;8.414;2022-08-07T06:17:52;101181.84;;;22.20;43.82
56514;BME280;62152;52.078;8.414;2022-08-07T06:19:41;101190.56;;;22.22;44.19
56514;BME280;62152;52.078;8.414;2022-08-07T06:21:28;101192.16;;;22.23;43.71
56514;BME280;62152;52.078;8.414;2022-08-07T06:23:13;101191.91;;;22.31;44.26
56514;BME280;62152;52.078;8.414;2022-08-07T06:25:00;101191.97;;;22.35;43.99
56514;BME280;62152;52.078;8.414;2022-08-07T06:26:46;101192.66;;;22.28;44.66
56514;BME280;62152;52.078;8.414;2022-08-07T06:28:46;101193.50;;;22.32;44.17
56514;BME280;62152;52.078;8.414;2022-08-07T06:30:33;101195.16;;;22.37;44.22
56514;BME280;62152;52.078;8.414;2022-08-07T06:32:22;101197.50;;;22.35;44.14
56514;BME280;62152;52.078;8.414;2022-08-07T06:34:07;101192.72;;;22.32;44.48
56514;BME280;62152;52.078;8.414;2022-08-07T06:35:53;101194.91;;;22.23;44.31
56514;BME280;62152;52.078;8.414;2022-08-07T06:37:38;101193.88;;;22.31;44.86
56514;BME280;62152;52.078;8.414;2022-08-07T06:39:23;101193.44;;;22.29;44.18
56514;BME280;62152;52.078;8.414;2022-08-07T06:41:20;101196.88;;;22.22;44.36
56514;BME280;62152;52.078;8.414;2022-08-07T06:43:12;101188.72;;;22.06;44.55
56514;BME280;62152;52.078;8.414;2022-08-07T06:45:22;101186.16;;;22.17;44.39
56514;BME280;62152;52.078;8.414;2022-08-07T06:47:14;101187.50;;;22.27;44.45
56514;BME280;62152;52.078;8.414;2022-08-07T06:49:00;101183.63;;;22.31;44.40
56514;BME280;62152;52.078;8.414;2022-08-07T06:50:48;101195.09;;;22.33;44.51
56514;BME280;62152;52.078;8.414;2022-08-07T06:52:41;101194.34;;;22.36;44.60
56514;BME280;62152;52.078;8.414;2022-08-07T06:54:30;101190.06;;;22.39;44.47
56514;BME280;62152;52.078;8.414;2022-08-07T06:56:17;101194.41;;;22.40;44.91
56514;BME280;62152;52.078;8.414;2022-08-07T06:58:23;101198.78;;;22.41;44.75
56514;BME280;62152;52.078;8.414;2022-08-07T07:00:15;101192.06;;;22.42;44.41
56514;BME280;62152;52.078;8.414;2022-08-07T07:02:11;101192.06;;;22.42;44.20
56514;BME280;62152;52.078;8.414;2022-08-07T07:04:02;101188.50;;;22.42;44.61
56514;BME280;62152;52.078;8.414;2022-08-07T07:05:51;101190.47;;;22.41;44.61
56514;BME280;62152;52.078;8.414;2022-08-07T07:07:36;101198.03;;;22.44;44.24
56514;BME280;62152;52.078;8.414;2022-08-07T07:09:26;101193.66;;;22.43;43.76
56514;BME280;62152;52.078;8.414;2022-08-07T07:11:12;101182.19;;;22.41;44.43
56514;BME280;62152;52.078;8.414;2022-08-07T07:13:04;101179.44;;;22.41;44.33
56514;BME280;62152;52.078;8.414;2022-08-07T07:14:59;101176.66;;;22.41;43.96
56514;BME280;62152;52.078;8.414;2022-08-07T07:16:52;101176.66;;;22.41;44.32
56514;BME280;62152;52.078;8.414;2022-08-07T07:18:48;101185.34;;;22.39;44.32
56514;BME280;62152;52.078;8.414;2022-08-07T07:20:43;101179.03;;;22.43;44.02
56514;BME280;62152;52.078;8.414;2022-08-07T07:22:33;101180.97;;;22.38;44.36
56514;BME280;62152;52.078;8.414;2022-08-07T07:24:19;101182.19;;;22.41;44.13
56514;BME280;62152;52.078;8.414;2022-08-07T07:26:10;101172.72;;;22.42;44.20
56514;BME280;62152;52.078;8.414;2022-08-07T07:28:02;101173.53;;;22.43;44.17
56514;BME280;62152;52.078;8.414;2022-08-07T07:29:59;101175.88;;;22.41;44.13
56514;BME280;62152;52.078;8.414;2022-08-07T07:31:52;101176.66;;;22.41;44.07
56514;BME280;62152;52.078;8.414;2022-08-07T07:33:45;101176.28;;;22.43;44.46
56514;BME280;62152;52.078;8.414;2022-08-07T07:35:35;101180.63;;;22.44;44.46
56514;BME280;62152;52.078;8.414;2022-08-07T07:37:23;101166.03;;;22.43;44.29
56514;BME280;62152;52.078;8.414;2022-08-07T07:39:13;101165.19;;;22.39;44.41
56514;BME280;62152;52.078;8.414;2022-08-07T07:41:03;101161.19;;;22.36;44.29
56514;BME280;62152;52.078;8.414;2022-08-07T07:42:54;101164.31;;;22.35;44.24
56514;BME280;62152;52.078;8.414;2022-08-07T07:44:46;101164.00;;;22.40;44.28
56514;BME280;62152;52.078;8.414;2022-08-07T07:46:36;101159.34;;;22.44;44.26
56514;BME280;62152;52.078;8.414;2022-08-07T07:48:26;101158.09;;;22.42;44.20
56514;BME280;62152;52.078;8.414;2022-08-07T07:50:17;101162.03;;;22.41;44.44
56514;BME280;62152;52.078;8.414;2022-08-07T07:52:06;101161.25;;;22.40;44.24
56514;BME280;62152;52.078;8.414;2022-08-07T07:53:56;101158.47;;;22.40;44.21
56514;BME280;62152;52.078;8.414;2022-08-07T07:55:43;101149.44;;;22.43;44.67
56514;BME280;62152;52.078;8.414;2022-08-07T07:57:30;101148.69;;;22.46;44.32
56514;BME280;62152;52.078;8.414;2022-08-07T07:59:19;101141.94;;;22.44;43.87
56514;BME280;62152;52.078;8.414;2022-08-07T08:01:07;101142.31;;;22.42;43.80
56514;BME280;62152;52.078;8.414;2022-08-07T08:02:57;101154.41;;;22.30;43.68
56514;BME280;62152;52.078;8.414;2022-08-07T08:04:46;101144.75;;;22.21;44.67
56514;BME280;62152;52.078;8.414;2022-08-07T08:06:34;101150.03;;;22.29;44.20
56514;BME280;62152;52.078;8.414;2022-08-07T08:08:22;101156.78;;;22.32;43.86
56514;BME280;62152;52.078;8.414;2022-08-07T08:10:11;101141.41;;;22.34;43.92
56514;BME280;62152;52.078;8.414;2022-08-07T08:11:58;101142.28;;;22.38;43.99
56514;BME280;62152;52.078;8.414;2022-08-07T08:13:47;101142.63;;;22.37;44.01
56514;BME280;62152;52.078;8.414;2022-08-07T08:15:36;101141.03;;;22.36;43.75
56514;BME280;62152;52.078;8.414;2022-08-07T08:17:26;101142.63;;;22.37;44.22
56514;BME280;62152;52.078;8.414;2022-08-07T08:19:16;101137.97;;;22.41;43.96
56514;BME280;62152;52.078;8.414;2022-08-07T08:21:07;101137.97;;;22.41;43.86
56514;BME280;62152;52.078;8.414;2022-08-07T08:23:18;101137.59;;;22.43;43.80
56514;BME280;62152;52.078;8.414;2022-08-07T08:25:19;101141.13;;;22.43;43.99
56514;BME280;62152;52.078;8.414;2022-08-07T08:27:19;101136.06;;;22.45;44.08
56514;BME280;62152;52.078;8.414;2022-08-07T08:29:11;101134.88;;;22.46;44.06
56514;BME280;62152;52.078;8.414;2022-08-07T08:31:05;101137.09;;;22.37;43.78
56514;BME280;62152;52.078;8.414;2022-08-07T08:32:58;101141.91;;;22.40;43.92
56514;BME280;62152;52.078;8.414;2022-08-07T08:34:47;101142.69;;;22.41;43.99
56514;BME280;62152;52.078;8.414;2022-08-07T08:36:36;101133.59;;;22.40;43.79
56514;BME280;62152;52.078;8.414;2022-08-07T08:38:33;101132.81;;;22.39;43.75
56514;BME280;62152;52.078;8.414;2022-08-07T08:40:28;101141.91;;;22.40;43.90
56514;BME280;62152;52.078;8.414;2022-08-07T08:42:24;101139.44;;;22.35;43.43
56514;BME280;62152;52.078;8.414;2022-08-07T08:44:18;101135.47;;;22.32;43.29
56514;BME280;62152;52.078;8.414;2022-08-07T08:46:17;101131.91;;;22.32;43.27
56514;BME280;62152;52.078;8.414;2022-08-07T08:48:26;101129.19;;;22.35;43.13
56514;BME280;62152;52.078;8.414;2022-08-07T08:50:21;101128.41;;;22.35;42.73
56514;BME280;62152;52.078;8.414;2022-08-07T08:52:15;101131.63;;;22.41;43.42
56514;BME280;62152;52.078;8.414;2022-08-07T08:54:15;101131.69;;;22.44;42.78
56514;BME280;62152;52.078;8.414;2022-08-07T08:56:11;101128.56;;;22.46;42.82
56514;BME280;62152;52.078;8.414;2022-08-07T08:58:09;101123.75;;;22.43;42.70
56514;BME280;62152;52.078;8.414;2022-08-07T09:00:02;101119.41;;;22.42;42.94
56514;BME280;62152;52.078;8.414;2022-08-07T09:02:03;101122.97;;;22.42;42.79
56514;BME280;62152;52.078;8.414;2022-08-07T09:04:03;101121.38;;;22.41;42.98
56514;BME280;62152;52.078;8.414;2022-08-07T09:05:57;101120.66;;;22.44;43.10
56514;BME280;62152;52.078;8.414;2022-08-07T09:07:58;101117.50;;;22.46;42.96
56514;BME280;62152;52.078;8.414;2022-08-07T09:10:12;101119.50;;;22.49;42.69
56514;BME280;62152;52.078;8.414;2022-08-07T09:12:11;101120.69;;;22.48;42.88
56514;BME280;62152;52.078;8.414;2022-08-07T09:14:12;101124.25;;;22.48;42.73
56514;BME280;62152;52.078;8.414;2022-08-07T09:16:07;101124.66;;;22.50;42.94
56514;BME280;62152;52.078;8.414;2022-08-07T09:18:15;101119.91;;;22.51;42.88
56514;BME280;62152;52.078;8.414;2022-08-07T09:20:21;101118.31;;;22.46;42.42
56514;BME280;62152;52.078;8.414;2022-08-07T09:22:26;101118.72;;;22.48;42.76
56514;BME280;62152;52.078;8.414;2022-08-07T09:24:33;101116.75;;;22.49;42.69
56514;BME280;62152;52.078;8.414;2022-08-07T09:26:39;101121.09;;;22.50;42.18
56514;BME280;62152;52.078;8.414;2022-08-07T09:28:38;101123.06;;;22.49;42.56
56514;BME280;62152;52.078;8.414;2022-08-07T09:30:40;101121.09;;;22.50;42.62
56514;BME280;62152;52.078;8.414;2022-08-07T09:32:56;101117.16;;;22.51;42.69
56514;BME280;62152;52.078;8.414;2022-08-07T09:34:52;101111.28;;;22.52;42.49
56514;BME280;62152;52.078;8.414;2022-08-07T09:37:00;101109.16;;;22.42;41.29
56514;BME280;62152;52.078;8.414;2022-08-07T09:39:02;101105.56;;;22.38;41.40